Time;durP1;ratioP1;P1;durP2;ratioP2;P2;SDS_P1;SDS_P2;PMS_P1;PMS_P2;Temp;Humidity;BMP_temperature;BMP_pressure;BME280_temperature;BME280_humidity;BME280_pressure;Samples;Min_cycle;Max_cycle;Signal;HPM_P1;HPM_P2
2023/03/31 00:00:52;;;;;;;3.72;0.60;;;22.00;78.40;;;;;;5024720;28;20049;-67
2023/03/31 00:03:23;;;;;;;3.35;0.93;;;22.20;78.60;;;;;;5010226;28;20021;-67
2023/03/31 00:05:57;;;;;;;1.40;0.50;;;22.20;78.20;;;;;;5021791;28;21827;-67
2023/03/31 00:08:28;;;;;;;3.70;1.00;;;22.20;74.30;;;;;;5023124;28;20152;-67
2023/03/31 00:11:02;;;;;;;2.75;0.57;;;22.40;77.40;;;;;;5023970;28;20033;-67
2023/03/31 00:13:30;;;;;;;7.43;0.57;;;22.40;77.80;;;;;;5008545;28;20029;-67
2023/03/31 00:16:03;;;;;;;2.28;0.55;;;22.60;75.60;;;;;;5022891;28;20028;-66
2023/03/31 00:18:30;;;;;;;3.35;0.43;;;22.60;73.60;;;;;;5021328;28;20095;-66
2023/03/31 00:21:13;;;;;;;2.70;0.63;;;22.50;74.20;;;;;;5023639;28;20022;-66
2023/03/31 00:23:41;;;;;;;2.95;0.52;;;22.50;73.70;;;;;;5026401;28;20017;-66
2023/03/31 00:26:08;;;;;;;4.13;0.82;;;22.60;72.10;;;;;;5022382;28;20029;-66
2023/03/31 00:28:36;;;;;;;2.75;0.68;;;22.70;72.60;;;;;;5022056;28;20033;-66
2023/03/31 00:31:04;;;;;;;3.08;0.80;;;22.70;72.10;;;;;;5025189;28;20462;-66
2023/03/31 00:33:32;;;;;;;8.77;0.73;;;22.90;71.00;;;;;;5028520;28;20033;-66
2023/03/31 00:36:05;;;;;;;3.25;0.43;;;23.00;69.40;;;;;;5027510;28;20021;-66
2023/03/31 00:38:33;;;;;;;2.65;0.70;;;22.90;70.00;;;;;;5022674;28;20075;-66
2023/03/31 00:41:01;;;;;;;4.72;0.60;;;23.00;68.80;;;;;;5020700;28;20030;-66
2023/03/31 00:43:38;;;;;;;1.10;0.65;;;23.20;70.00;;;;;;5022180;28;20086;-66
2023/03/31 00:46:19;;;;;;;2.90;0.40;;;23.30;70.60;;;;;;5023143;28;21619;-65
2023/03/31 00:48:50;;;;;;;0.68;0.30;;;23.20;68.50;;;;;;5019570;28;20540;-67
2023/03/31 00:51:20;;;;;;;3.25;0.50;;;23.10;69.00;;;;;;5026505;28;20033;-67
2023/03/31 00:53:58;;;;;;;3.83;0.55;;;23.30;70.20;;;;;;4998595;28;20126;-67
2023/03/31 00:56:33;;;;;;;4.03;0.57;;;23.50;70.30;;;;;;5024570;28;21500;-66
2023/03/31 00:59:03;;;;;;;0.43;0.20;;;23.50;67.30;;;;;;5013920;28;20061;-67
2023/03/31 01:01:34;;;;;;;5.32;0.50;;;23.50;64.40;;;;;;5023013;28;20632;-67
2023/03/31 01:04:04;;;;;;;3.42;0.50;;;23.50;64.90;;;;;;5023638;28;20029;-68
2023/03/31 01:06:32;;;;;;;0.55;0.32;;;23.50;68.70;;;;;;5023716;28;20017;-67
2023/03/31 01:09:05;;;;;;;1.27;0.60;;;23.60;66.30;;;;;;5023774;28;20155;-67
2023/03/31 01:11:34;;;;;;;3.13;0.60;;;23.60;64.80;;;;;;5024030;28;20053;-68
2023/03/31 01:14:03;;;;;;;1.35;0.50;;;23.70;64.80;;;;;;5019893;28;20204;-67
2023/03/31 01:16:32;;;;;;;2.15;0.52;;;23.70;65.80;;;;;;5025427;28;20103;-67
2023/03/31 01:19:01;;;;;;;3.17;0.50;;;23.90;65.10;;;;;;5024208;28;20108;-68
2023/03/31 01:21:58;;;;;;;3.10;0.52;;;24.00;66.70;;;;;;5024653;28;20468;-67
2023/03/31 01:24:36;;;;;;;1.38;0.40;;;24.20;63.40;;;;;;5023091;28;20482;-68
2023/03/31 01:27:37;;;;;;;2.63;0.80;;;24.20;61.10;;;;;;5014364;28;20025;-67
2023/03/31 01:30:07;;;;;;;10.07;2.05;;;24.30;65.10;;;;;;5025586;28;20033;-67
2023/03/31 01:32:55;;;;;;;4.25;0.50;;;24.30;63.70;;;;;;5022890;28;20033;-67
2023/03/31 01:35:35;;;;;;;2.38;0.47;;;24.40;62.80;;;;;;5010930;28;20181;-68
2023/03/31 01:38:30;;;;;;;2.20;0.47;;;24.30;64.30;;;;;;5014971;28;20037;-68
2023/03/31 01:41:03;;;;;;;2.40;0.50;;;24.40;61.80;;;;;;5021748;28;20565;-68
2023/03/31 01:43:56;;;;;;;1.65;0.50;;;24.40;61.10;;;;;;5022546;28;20766;-68
2023/03/31 01:46:56;;;;;;;1.05;0.30;;;24.40;59.90;;;;;;5024456;28;20398;-68
2023/03/31 01:49:38;;;;;;;3.95;0.40;;;24.40;57.00;;;;;;5016249;28;20050;-68
2023/03/31 01:52:16;;;;;;;1.00;0.50;;;24.20;58.70;;;;;;5022042;28;20028;-68
2023/03/31 01:55:10;;;;;;;2.33;0.40;;;24.40;61.60;;;;;;5019709;28;20045;-67
2023/03/31 01:57:43;;;;;;;0.50;0.30;;;24.70;62.50;;;;;;5017536;28;20496;-69
2023/03/31 02:00:17;;;;;;;0.80;0.33;;;24.80;58.90;;;;;;5024053;28;20402;-67
2023/03/31 02:02:47;;;;;;;2.00;0.50;;;24.80;59.10;;;;;;5008607;28;20057;-67
2023/03/31 02:05:21;;;;;;;1.10;0.40;;;24.80;55.80;;;;;;5012407;28;20033;-67
2023/03/31 02:07:54;;;;;;;0.60;0.30;;;24.80;58.50;;;;;;5033711;28;20033;-68
2023/03/31 02:10:24;;;;;;;0.73;0.27;;;24.90;58.10;;;;;;5032051;28;20045;-68
2023/03/31 02:12:54;;;;;;;1.20;0.40;;;24.90;57.30;;;;;;5029169;28;20779;-67
2023/03/31 02:15:27;;;;;;;0.85;0.35;;;25.00;58.70;;;;;;5029536;28;20553;-67
2023/03/31 02:17:58;;;;;;;0.60;0.30;;;25.10;56.20;;;;;;5028444;28;20029;-66
2023/03/31 02:20:31;;;;;;;1.35;0.63;;;25.00;54.00;;;;;;5029867;28;20056;-68
2023/03/31 02:22:59;;;;;;;2.35;0.40;;;24.70;56.40;;;;;;5029184;28;20043;-65
2023/03/31 02:25:35;;;;;;;0.52;0.30;;;24.80;55.90;;;;;;5029262;28;20044;-66
2023/03/31 02:28:10;;;;;;;0.80;0.40;;;24.70;56.10;;;;;;5029850;28;20351;-65
2023/03/31 02:31:03;;;;;;;1.67;0.30;;;24.80;55.40;;;;;;5011631;28;20060;-64
2023/03/31 02:33:31;;;;;;;1.35;0.40;;;24.70;55.60;;;;;;5026381;28;20164;-65
2023/03/31 02:35:59;;;;;;;0.25;0.20;;;24.80;57.10;;;;;;5030392;28;20013;-66
2023/03/31 02:38:27;;;;;;;0.85;0.30;;;24.90;55.40;;;;;;5027988;28;20553;-65
2023/03/31 02:40:54;;;;;;;0.32;0.22;;;24.90;53.50;;;;;;5026054;28;20018;-66
2023/03/31 02:43:22;;;;;;;2.08;0.40;;;24.80;53.70;;;;;;5031341;28;20033;-66
2023/03/31 02:45:50;;;;;;;2.72;0.50;;;24.90;56.40;;;;;;5025935;28;20053;-65
2023/03/31 02:48:21;;;;;;;1.42;0.50;;;25.10;53.70;;;;;;5027759;28;20505;-64
2023/03/31 02:51:07;;;;;;;1.63;0.40;;;25.20;53.70;;;;;;5023365;28;20128;-64
2023/03/31 02:54:22;;;;;;;0.38;0.30;;;25.40;55.50;;;;;;5011194;28;20025;-66
2023/03/31 02:57:31;;;;;;;1.50;0.20;;;25.50;52.70;;;;;;4968419;28;20031;-63
2023/03/31 03:00:31;;;;;;;0.47;0.20;;;25.40;52.90;;;;;;4932215;29;20310;-65
2023/03/31 03:03:24;;;;;;;1.00;0.20;;;25.30;53.80;;;;;;5009508;28;20034;-66
2023/03/31 03:06:21;;;;;;;2.50;0.35;;;25.30;52.40;;;;;;5014288;28;20033;-64
2023/03/31 03:09:12;;;;;;;5.57;0.60;;;25.40;53.90;;;;;;5018188;28;20021;-65
2023/03/31 03:11:47;;;;;;;2.85;0.30;;;25.20;53.30;;;;;;5015002;28;20033;-67
2023/03/31 03:14:32;;;;;;;0.82;0.30;;;25.40;54.80;;;;;;5028227;28;20018;-65
2023/03/31 03:17:20;;;;;;;2.65;0.40;;;25.40;51.30;;;;;;5023399;28;20371;-63
2023/03/31 03:19:55;;;;;;;1.40;0.40;;;25.40;51.80;;;;;;5026278;28;20057;-64
2023/03/31 03:22:23;;;;;;;3.63;0.40;;;25.30;53.60;;;;;;5024419;28;20273;-65
2023/03/31 03:24:51;;;;;;;0.82;0.32;;;25.40;55.20;;;;;;5026892;28;20470;-65
2023/03/31 03:27:22;;;;;;;0.38;0.28;;;25.50;54.30;;;;;;5028430;28;20029;-65
2023/03/31 03:29:50;;;;;;;0.52;0.30;;;25.40;53.50;;;;;;5024553;28;20469;-65
2023/03/31 03:32:17;;;;;;;0.93;0.30;;;25.50;51.70;;;;;;5030232;28;20029;-65
2023/03/31 03:34:45;;;;;;;0.20;0.10;;;25.50;54.00;;;;;;5029470;28;20126;-64
2023/03/31 03:37:12;;;;;;;1.55;0.40;;;25.50;53.10;;;;;;5027964;28;20053;-64
2023/03/31 03:39:40;;;;;;;1.20;0.10;;;25.50;53.70;;;;;;5027249;28;20041;-65
2023/03/31 03:42:07;;;;;;;0.98;0.28;;;25.60;52.70;;;;;;5026425;28;20125;-64
2023/03/31 03:44:35;;;;;;;0.93;0.30;;;25.60;51.90;;;;;;5022779;28;20522;-64
2023/03/31 03:47:02;;;;;;;0.77;0.30;;;25.50;53.40;;;;;;5022318;28;20025;-65
2023/03/31 03:49:29;;;;;;;1.25;0.20;;;25.60;54.40;;;;;;5025707;28;20040;-66
2023/03/31 03:51:57;;;;;;;2.03;0.32;;;25.70;53.10;;;;;;5025294;28;20037;-67
2023/03/31 03:54:24;;;;;;;1.33;0.40;;;25.60;54.00;;;;;;5025957;28;20022;-67
2023/03/31 03:56:52;;;;;;;0.75;0.30;;;25.70;52.80;;;;;;5021954;28;20049;-67
2023/03/31 03:59:19;;;;;;;0.32;0.20;;;25.60;52.50;;;;;;5027202;28;20021;-67
2023/03/31 04:01:47;;;;;;;2.45;0.35;;;25.70;53.90;;;;;;5026501;28;20434;-67
2023/03/31 04:04:15;;;;;;;1.58;0.55;;;25.80;53.40;;;;;;5025455;28;20025;-67
2023/03/31 04:06:42;;;;;;;0.57;0.40;;;25.90;53.80;;;;;;5017237;28;20451;-66
2023/03/31 04:09:10;;;;;;;0.35;0.25;;;25.90;53.30;;;;;;5025796;28;20029;-67
2023/03/31 04:11:37;;;;;;;0.98;0.45;;;25.80;53.40;;;;;;5024640;28;20042;-66
2023/03/31 04:14:05;;;;;;;0.45;0.32;;;25.90;54.30;;;;;;5027720;28;20548;-66
2023/03/31 04:16:33;;;;;;;0.88;0.40;;;26.00;54.70;;;;;;5016129;28;20057;-66
2023/03/31 04:19:03;;;;;;;0.80;0.40;;;26.20;54.70;;;;;;5019137;28;20018;-65
2023/03/31 04:21:33;;;;;;;1.15;0.40;;;26.10;54.00;;;;;;5022212;28;20533;-65
2023/03/31 04:24:03;;;;;;;2.33;0.40;;;26.10;55.30;;;;;;5026712;28;20593;-65
2023/03/31 04:26:41;;;;;;;0.52;0.32;;;26.10;55.40;;;;;;5025430;28;20068;-66
2023/03/31 04:29:13;;;;;;;0.47;0.30;;;26.00;54.60;;;;;;5026430;28;20426;-66
2023/03/31 04:31:44;;;;;;;0.55;0.32;;;25.90;55.40;;;;;;5024105;28;20029;-67
2023/03/31 04:34:14;;;;;;;0.52;0.40;;;25.90;54.00;;;;;;5026435;28;20111;-67
2023/03/31 04:36:46;;;;;;;1.33;0.57;;;25.80;54.30;;;;;;5026416;28;20094;-66
2023/03/31 04:39:29;;;;;;;2.53;0.40;;;25.90;56.80;;;;;;5026016;28;20034;-66
2023/03/31 04:41:59;;;;;;;10.45;0.60;;;26.10;56.50;;;;;;5017239;28;20045;-65
2023/03/31 04:44:27;;;;;;;0.93;0.30;;;26.10;54.50;;;;;;5004209;28;20072;-67
2023/03/31 04:46:55;;;;;;;1.17;0.60;;;26.10;56.70;;;;;;4997990;28;20030;-66
2023/03/31 04:49:23;;;;;;;1.25;0.22;;;26.20;55.90;;;;;;4990893;28;20077;-66
2023/03/31 04:51:51;;;;;;;2.20;0.40;;;26.10;54.10;;;;;;5005095;28;20168;-66
2023/03/31 04:54:19;;;;;;;0.65;0.40;;;26.10;55.90;;;;;;5003903;28;20033;-66
2023/03/31 04:56:47;;;;;;;1.35;0.43;;;26.10;54.60;;;;;;4992936;28;20026;-67
2023/03/31 04:59:15;;;;;;;1.88;0.55;;;26.10;55.30;;;;;;5005625;28;20022;-65
2023/03/31 05:01:44;;;;;;;2.08;0.32;;;26.00;55.10;;;;;;5004961;28;20033;-66
2023/03/31 05:04:12;;;;;;;4.28;0.82;;;25.90;54.00;;;;;;5003363;28;20076;-66
2023/03/31 05:06:40;;;;;;;1.23;0.43;;;25.70;55.60;;;;;;5020607;28;20029;-65
2023/03/31 05:09:08;;;;;;;1.08;0.50;;;25.60;55.30;;;;;;5021307;28;20406;-65
2023/03/31 05:11:37;;;;;;;0.93;0.40;;;25.50;55.30;;;;;;5004125;28;20045;-65
2023/03/31 05:14:05;;;;;;;0.77;0.60;;;25.40;56.70;;;;;;5004644;28;20486;-65
2023/03/31 05:16:33;;;;;;;2.42;0.55;;;25.40;57.80;;;;;;5001480;28;20029;-65
2023/03/31 05:19:01;;;;;;;1.20;0.45;;;25.60;57.00;;;;;;5021481;28;20025;-64
2023/03/31 05:21:30;;;;;;;2.35;0.47;;;25.60;57.80;;;;;;4995556;28;20053;-65
2023/03/31 05:23:58;;;;;;;0.82;0.45;;;25.50;56.30;;;;;;5020409;28;20030;-64
2023/03/31 05:26:26;;;;;;;0.95;0.32;;;25.40;57.00;;;;;;5007373;28;20037;-65
2023/03/31 05:28:54;;;;;;;2.42;0.60;;;25.40;57.00;;;;;;5009451;28;20025;-64
2023/03/31 05:31:21;;;;;;;2.50;0.20;;;25.40;57.00;;;;;;5007234;28;20038;-64
2023/03/31 05:33:49;;;;;;;1.08;0.30;;;25.50;56.60;;;;;;5006766;28;20040;-65
2023/03/31 05:36:18;;;;;;;0.77;0.28;;;25.50;56.90;;;;;;5002646;28;20040;-65
2023/03/31 05:38:46;;;;;;;1.10;0.40;;;25.50;55.90;;;;;;5003866;28;20030;-65
2023/03/31 05:41:15;;;;;;;1.38;0.40;;;25.30;57.10;;;;;;5004831;28;20117;-66
2023/03/31 05:43:43;;;;;;;2.20;0.50;;;25.30;57.50;;;;;;5024223;28;20755;-65
2023/03/31 05:46:10;;;;;;;3.40;0.57;;;25.30;56.00;;;;;;5025576;28;20480;-64
2023/03/31 05:48:38;;;;;;;0.60;0.30;;;25.30;56.70;;;;;;5025239;28;20044;-64
2023/03/31 05:51:05;;;;;;;1.02;0.35;;;25.40;57.60;;;;;;5022318;28;20382;-65
2023/03/31 05:53:33;;;;;;;3.30;0.50;;;25.30;56.70;;;;;;5024535;28;20025;-65
2023/03/31 05:56:03;;;;;;;4.07;0.55;;;25.40;56.60;;;;;;5030716;28;20647;-66
2023/03/31 05:58:31;;;;;;;0.50;0.22;;;25.40;58.10;;;;;;5015445;28;20009;-66
2023/03/31 06:01:21;;;;;;;7.78;0.80;;;25.50;57.10;;;;;;5024514;28;20036;-66
2023/03/31 06:03:50;;;;;;;6.07;0.82;;;25.50;56.10;;;;;;5017719;28;20049;-65
2023/03/31 06:06:18;;;;;;;2.40;0.80;;;25.40;57.00;;;;;;5021929;28;20044;-66
2023/03/31 06:08:47;;;;;;;4.22;0.40;;;25.20;57.30;;;;;;5025892;28;20025;-66
2023/03/31 06:11:18;;;;;;;4.05;0.70;;;25.00;58.50;;;;;;5024255;28;20554;-67
2023/03/31 06:13:46;;;;;;;1.42;0.40;;;24.70;58.90;;;;;;5021458;28;20024;-67
2023/03/31 06:16:15;;;;;;;1.85;0.50;;;24.50;58.50;;;;;;5001539;28;20022;-65
2023/03/31 06:18:43;;;;;;;3.05;0.63;;;24.50;58.70;;;;;;5026400;28;20088;-66
2023/03/31 06:21:16;;;;;;;5.53;2.10;;;24.50;60.50;;;;;;5017455;28;20513;-66
2023/03/31 06:23:44;;;;;;;1.98;0.30;;;24.70;58.60;;;;;;5008661;28;20056;-65
2023/03/31 06:26:17;;;;;;;2.17;0.38;;;24.80;58.30;;;;;;5025007;28;20689;-65
2023/03/31 06:28:46;;;;;;;3.05;0.50;;;24.80;56.20;;;;;;5021003;28;20479;-65
2023/03/31 06:31:15;;;;;;;1.80;0.30;;;24.80;56.20;;;;;;5011948;28;20045;-65
2023/03/31 06:33:44;;;;;;;1.73;0.40;;;24.70;57.50;;;;;;5018543;28;20478;-67
2023/03/31 06:36:14;;;;;;;0.28;0.20;;;24.70;57.80;;;;;;5017759;28;20056;-68
2023/03/31 06:38:42;;;;;;;1.08;0.40;;;24.60;58.60;;;;;;5011224;28;20030;-68
2023/03/31 06:41:12;;;;;;;1.58;0.40;;;24.60;58.60;;;;;;5007432;28;20405;-66
2023/03/31 06:43:40;;;;;;;1.00;0.50;;;24.60;58.60;;;;;;5000041;28;20034;-66
2023/03/31 06:46:08;;;;;;;3.08;0.43;;;24.60;58.50;;;;;;5007001;28;20027;-65
2023/03/31 06:48:36;;;;;;;3.58;0.65;;;24.60;58.90;;;;;;5023704;28;20088;-65
2023/03/31 06:51:07;;;;;;;1.02;0.40;;;24.60;58.80;;;;;;5009493;28;20084;-68
2023/03/31 06:53:35;;;;;;;0.47;0.20;;;24.60;59.00;;;;;;5007053;28;20682;-68
2023/03/31 06:56:03;;;;;;;1.15;0.43;;;24.60;59.20;;;;;;5001993;28;20602;-66
2023/03/31 06:58:31;;;;;;;2.15;0.30;;;24.50;59.10;;;;;;4991148;28;20026;-68
2023/03/31 07:01:01;;;;;;;2.47;0.50;;;24.40;59.10;;;;;;5020055;28;20029;-66
2023/03/31 07:03:29;;;;;;;2.47;0.52;;;24.30;59.40;;;;;;5008911;28;20030;-68
2023/03/31 07:05:56;;;;;;;1.08;0.38;;;24.10;59.80;;;;;;5009499;28;20026;-67
2023/03/31 07:08:24;;;;;;;1.42;0.60;;;23.90;61.00;;;;;;5024738;28;20483;-67
2023/03/31 07:11:00;;;;;;;3.40;0.65;;;23.70;61.20;;;;;;5004067;28;20042;-69
2023/03/31 07:13:28;;;;;;;0.60;0.40;;;23.50;61.70;;;;;;5012236;28;20507;-70
2023/03/31 07:15:55;;;;;;;2.90;0.60;;;23.20;61.80;;;;;;5004577;28;20057;-68
2023/03/31 07:18:31;;;;;;;0.93;0.30;;;23.00;61.60;;;;;;5006247;28;20026;-68
2023/03/31 07:20:58;;;;;;;4.68;1.08;;;22.90;63.10;;;;;;5002917;28;20029;-69
2023/03/31 07:23:26;;;;;;;3.78;0.70;;;22.80;62.60;;;;;;5006550;28;20083;-69
2023/03/31 07:25:54;;;;;;;1.48;0.40;;;22.60;63.00;;;;;;5023330;28;20026;-69
2023/03/31 07:28:21;;;;;;;1.15;0.60;;;22.50;63.40;;;;;;5000975;28;20025;-69
2023/03/31 07:30:49;;;;;;;0.88;0.40;;;22.40;63.60;;;;;;5022217;28;20038;-69
2023/03/31 07:33:16;;;;;;;3.38;0.70;;;22.30;64.30;;;;;;5009065;28;20606;-68
2023/03/31 07:35:43;;;;;;;2.05;0.65;;;22.20;64.30;;;;;;5004619;28;20018;-68
2023/03/31 07:38:11;;;;;;;2.50;0.52;;;22.20;64.00;;;;;;5006855;28;20032;-68
2023/03/31 07:40:40;;;;;;;0.98;0.70;;;22.10;65.10;;;;;;5024912;28;20078;-68
2023/03/31 07:43:08;;;;;;;3.53;0.80;;;22.00;65.00;;;;;;5010060;28;20029;-69
2023/03/31 07:45:38;;;;;;;1.20;0.60;;;21.90;65.40;;;;;;5006377;28;20030;-69
2023/03/31 07:48:05;;;;;;;1.67;0.77;;;21.80;65.70;;;;;;5007318;28;20026;-69
2023/03/31 07:50:33;;;;;;;0.88;0.47;;;21.70;65.40;;;;;;5010071;28;20045;-69
2023/03/31 07:53:00;;;;;;;4.30;0.57;;;21.60;65.80;;;;;;5011049;28;20076;-69
2023/03/31 07:55:28;;;;;;;1.75;0.45;;;21.50;66.10;;;;;;5005731;28;20033;-69
2023/03/31 07:57:55;;;;;;;1.65;0.65;;;21.40;66.70;;;;;;5006506;28;20022;-67
2023/03/31 08:00:23;;;;;;;2.83;0.50;;;21.30;67.30;;;;;;5007705;28;21630;-68
2023/03/31 08:02:50;;;;;;;2.90;0.52;;;21.20;67.90;;;;;;5023882;28;20049;-68
2023/03/31 08:05:20;;;;;;;1.75;0.55;;;21.20;68.20;;;;;;5008370;28;20033;-69
2023/03/31 08:07:49;;;;;;;3.60;0.40;;;21.20;69.40;;;;;;5001770;28;20390;-68
2023/03/31 08:10:25;;;;;;;4.80;0.70;;;21.10;69.80;;;;;;5001358;28;20038;-68
2023/03/31 08:12:53;;;;;;;1.70;0.55;;;21.10;69.60;;;;;;5007560;28;20041;-67
2023/03/31 08:15:21;;;;;;;0.88;0.50;;;21.00;69.70;;;;;;5004266;28;20108;-70
2023/03/31 08:17:48;;;;;;;0.98;0.60;;;21.00;70.90;;;;;;4999753;28;20602;-69
2023/03/31 08:20:15;;;;;;;1.08;0.50;;;20.90;71.30;;;;;;5017100;28;20914;-67
2023/03/31 08:22:43;;;;;;;4.05;1.77;;;20.80;71.00;;;;;;5021374;28;20030;-66
2023/03/31 08:25:11;;;;;;;1.60;0.80;;;20.80;70.80;;;;;;5007796;28;20048;-69
2023/03/31 08:27:40;;;;;;;1.40;0.80;;;20.80;71.60;;;;;;5006984;28;20407;-69
2023/03/31 08:30:09;;;;;;;3.63;2.13;;;20.80;71.00;;;;;;5007566;28;20151;-66
2023/03/31 08:32:37;;;;;;;5.25;1.83;;;20.80;70.80;;;;;;5000431;28;20548;-65
2023/03/31 08:35:05;;;;;;;5.43;0.63;;;20.80;71.70;;;;;;5004458;28;20088;-65
2023/03/31 08:37:33;;;;;;;1.25;0.57;;;20.60;72.30;;;;;;4999805;28;20079;-66
2023/03/31 08:40:03;;;;;;;1.05;0.40;;;20.50;73.60;;;;;;5005418;28;20140;-65
2023/03/31 08:42:44;;;;;;;1.05;0.43;;;20.40;74.60;;;;;;5017990;28;21182;-66
2023/03/31 08:45:30;;;;;;;1.60;0.60;;;20.20;76.40;;;;;;5024861;28;20044;-66
2023/03/31 08:48:06;;;;;;;1.75;0.68;;;20.00;77.60;;;;;;5027350;28;20037;-68
2023/03/31 08:50:40;;;;;;;4.45;0.77;;;19.90;79.00;;;;;;5018391;28;20041;-67
2023/03/31 08:53:31;;;;;;;4.82;1.08;;;19.70;80.60;;;;;;5012814;28;20072;-69
2023/03/31 08:56:00;;;;;;;2.22;0.50;;;19.50;82.60;;;;;;5016452;28;20025;-64
2023/03/31 08:58:40;;;;;;;2.47;0.70;;;19.30;85.10;;;;;;5024468;28;20490;-64
2023/03/31 09:01:27;;;;;;;4.72;0.95;;;19.20;88.70;;;;;;5015148;28;20064;-66
2023/03/31 09:04:09;;;;;;;2.83;0.80;;;19.10;90.10;;;;;;5027590;28;20406;-65
2023/03/31 09:07:12;;;;;;;1.40;0.70;;;19.10;91.60;;;;;;5020284;28;20148;-65
2023/03/31 09:09:46;;;;;;;2.40;0.60;;;19.00;92.50;;;;;;5010642;28;20045;-65
2023/03/31 09:12:31;;;;;;;1.33;0.50;;;18.90;93.60;;;;;;5024070;28;20025;-67
2023/03/31 09:15:25;;;;;;;2.00;1.00;;;18.80;94.40;;;;;;5026510;28;20053;-65
2023/03/31 09:17:56;;;;;;;3.47;0.70;;;18.80;94.10;;;;;;5022180;28;20037;-66
2023/03/31 09:20:36;;;;;;;1.70;0.70;;;19.00;92.90;;;;;;5025202;28;20932;-66
2023/03/31 09:23:11;;;;;;;3.58;0.73;;;19.10;94.00;;;;;;5025587;28;20024;-66
2023/03/31 09:25:41;;;;;;;1.25;0.75;;;19.00;95.00;;;;;;5026620;28;20025;-66
2023/03/31 09:28:21;;;;;;;1.80;0.98;;;19.00;95.80;;;;;;5024287;28;20033;-66
2023/03/31 09:30:49;;;;;;;3.58;0.80;;;19.10;96.60;;;;;;5023151;28;20040;-66
2023/03/31 09:33:31;;;;;;;2.47;0.75;;;19.10;96.70;;;;;;5016670;28;20037;-66
2023/03/31 09:36:06;;;;;;;1.95;0.73;;;19.10;97.20;;;;;;5013674;28;20033;-66
2023/03/31 09:38:33;;;;;;;3.28;0.80;;;19.20;97.70;;;;;;5014235;28;20372;-66
2023/03/31 09:41:04;;;;;;;2.40;1.33;;;19.20;97.80;;;;;;5022439;28;20030;-66
2023/03/31 09:43:39;;;;;;;1.80;0.80;;;19.20;98.00;;;;;;5010522;28;20741;-66
2023/03/31 09:46:18;;;;;;;4.82;0.68;;;19.30;98.00;;;;;;5028233;28;20037;-66
2023/03/31 09:49:12;;;;;;;2.25;0.73;;;19.30;98.70;;;;;;5019825;28;20120;-66
2023/03/31 09:51:47;;;;;;;2.35;0.90;;;19.40;99.30;;;;;;5021188;28;20045;-65
2023/03/31 09:54:40;;;;;;;1.35;0.50;;;19.40;97.30;;;;;;5003887;28;20490;-65
2023/03/31 09:57:30;;;;;;;1.83;0.90;;;19.40;97.30;;;;;;5018500;28;20037;-65
2023/03/31 10:00:18;;;;;;;2.05;0.77;;;19.40;96.80;;;;;;5024851;28;20034;-65
2023/03/31 10:02:51;;;;;;;1.02;0.63;;;19.50;95.90;;;;;;5005200;28;20164;-65
2023/03/31 10:05:31;;;;;;;0.75;0.65;;;19.70;94.30;;;;;;5011949;28;20109;-65
2023/03/31 10:08:20;;;;;;;1.92;0.60;;;19.80;93.90;;;;;;5021344;28;20021;-65
2023/03/31 10:10:49;;;;;;;3.45;1.48;;;19.80;93.30;;;;;;5023028;28;20144;-65
2023/03/31 10:13:22;;;;;;;1.73;0.90;;;19.90;92.60;;;;;;5007338;28;20025;-67
2023/03/31 10:15:53;;;;;;;1.20;0.63;;;19.90;92.60;;;;;;5022083;28;20083;-65
2023/03/31 10:18:23;;;;;;;2.47;0.80;;;19.90;91.90;;;;;;5023379;28;20029;-65
2023/03/31 10:20:52;;;;;;;1.77;0.77;;;19.90;91.90;;;;;;5017909;28;20084;-65
2023/03/31 10:23:47;;;;;;;1.42;0.70;;;19.90;91.70;;;;;;5016050;28;20046;-67
2023/03/31 10:26:36;;;;;;;2.60;0.68;;;20.00;91.40;;;;;;5023715;28;20033;-65
2023/03/31 10:29:11;;;;;;;3.33;0.70;;;20.00;91.10;;;;;;5022965;28;20034;-66
2023/03/31 10:31:39;;;;;;;2.35;1.05;;;20.00;91.30;;;;;;5029284;28;20489;-66
2023/03/31 10:34:15;;;;;;;1.50;0.60;;;20.00;90.70;;;;;;5028621;28;20107;-66
2023/03/31 10:36:51;;;;;;;1.10;0.63;;;20.00;90.80;;;;;;5028437;28;20033;-66
2023/03/31 10:39:20;;;;;;;2.03;0.85;;;20.00;90.40;;;;;;5027179;28;20087;-66
2023/03/31 10:41:53;;;;;;;2.83;0.73;;;20.00;90.70;;;;;;5028805;28;20049;-66
2023/03/31 10:44:38;;;;;;;1.57;0.63;;;19.90;90.50;;;;;;5021098;28;20025;-66
2023/03/31 10:47:15;;;;;;;2.63;0.73;;;19.90;90.80;;;;;;5028332;28;20025;-66
2023/03/31 10:49:43;;;;;;;1.85;0.90;;;19.80;90.70;;;;;;5027117;28;20083;-66
2023/03/31 10:52:20;;;;;;;1.98;0.82;;;19.70;91.10;;;;;;5013237;28;20089;-66
2023/03/31 10:55:02;;;;;;;2.05;1.25;;;19.60;91.30;;;;;;5031604;28;20022;-66
2023/03/31 10:57:59;;;;;;;2.38;1.13;;;19.60;91.40;;;;;;5029735;28;20553;-66
2023/03/31 11:00:38;;;;;;;2.65;1.30;;;19.50;91.60;;;;;;5024781;28;20038;-66
2023/03/31 11:03:37;;;;;;;1.85;0.95;;;19.40;91.80;;;;;;5027805;28;20025;-65
2023/03/31 11:06:33;;;;;;;2.28;0.98;;;19.40;91.80;;;;;;5028865;28;20099;-66
2023/03/31 11:09:39;;;;;;;3.90;1.42;;;19.40;92.10;;;;;;5022467;28;20022;-65
2023/03/31 11:12:17;;;;;;;1.58;1.00;;;19.40;92.00;;;;;;5022198;28;20097;-65
2023/03/31 11:15:02;;;;;;;3.25;0.95;;;19.40;91.90;;;;;;5011463;28;20025;-65
2023/03/31 11:18:02;;;;;;;3.17;1.40;;;19.40;91.90;;;;;;5028229;28;20064;-65
2023/03/31 11:21:01;;;;;;;2.38;0.90;;;19.40;92.10;;;;;;5017844;28;20033;-65
2023/03/31 11:23:48;;;;;;;1.33;0.80;;;19.40;91.60;;;;;;5024785;28;20041;-64
2023/03/31 11:26:33;;;;;;;2.45;1.08;;;19.40;91.40;;;;;;5026556;28;20029;-64
2023/03/31 11:29:15;;;;;;;1.10;0.70;;;19.30;91.50;;;;;;5023900;28;20108;-65
2023/03/31 11:32:27;;;;;;;3.22;1.00;;;19.30;91.80;;;;;;5026615;28;20045;-63
2023/03/31 11:35:21;;;;;;;2.00;1.20;;;19.30;92.20;;;;;;5019736;28;20080;-64
2023/03/31 11:38:16;;;;;;;2.72;0.93;;;19.20;92.30;;;;;;5021557;28;20113;-64
2023/03/31 11:41:00;;;;;;;3.25;1.33;;;19.20;92.60;;;;;;5025528;28;20110;-65
2023/03/31 11:43:56;;;;;;;3.65;1.17;;;19.10;92.50;;;;;;4975306;28;20093;-65
2023/03/31 11:46:42;;;;;;;2.33;0.88;;;19.00;93.10;;;;;;4969567;28;20030;-65
2023/03/31 11:49:10;;;;;;;1.98;0.82;;;19.00;92.90;;;;;;4980760;28;20054;-67
2023/03/31 11:52:13;;;;;;;1.80;0.80;;;18.90;93.10;;;;;;4986836;28;20072;-64
2023/03/31 11:54:50;;;;;;;1.83;0.88;;;18.90;93.60;;;;;;4982212;28;20729;-64
2023/03/31 11:57:32;;;;;;;1.00;0.70;;;18.70;94.00;;;;;;4982864;28;20030;-65
2023/03/31 12:00:10;;;;;;;3.22;0.90;;;18.70;94.60;;;;;;4992440;28;20117;-65
2023/03/31 12:03:02;;;;;;;1.60;0.70;;;18.60;94.80;;;;;;4983457;28;20399;-65
2023/03/31 12:05:33;;;;;;;1.83;0.93;;;18.60;95.10;;;;;;4989891;28;20781;-65
2023/03/31 12:08:06;;;;;;;2.17;0.88;;;18.50;95.60;;;;;;4988185;28;20637;-65
2023/03/31 12:10:35;;;;;;;2.15;0.90;;;18.40;95.90;;;;;;4979624;28;20126;-65
2023/03/31 12:13:40;;;;;;;3.25;0.70;;;18.30;96.70;;;;;;4994331;28;20475;-64
2023/03/31 12:16:13;;;;;;;1.63;0.88;;;18.20;97.40;;;;;;4988295;28;20038;-65
2023/03/31 12:19:04;;;;;;;3.17;1.17;;;18.10;97.80;;;;;;4987055;28;20032;-65
2023/03/31 12:21:34;;;;;;;3.30;1.15;;;17.90;98.30;;;;;;4989241;28;20487;-65
2023/03/31 12:24:02;;;;;;;3.08;0.90;;;17.70;98.70;;;;;;4990212;28;20034;-65
2023/03/31 12:26:51;;;;;;;4.78;1.50;;;17.60;99.90;;;;;;4986865;28;20082;-64
2023/03/31 12:29:30;;;;;;;3.90;1.00;;;17.40;99.90;;;;;;4985576;28;20034;-64
2023/03/31 12:32:02;;;;;;;3.05;1.15;;;17.30;99.90;;;;;;4997673;28;20127;-64
2023/03/31 12:34:31;;;;;;;1.38;0.85;;;17.10;99.90;;;;;;4984218;28;20027;-64
2023/03/31 12:37:29;;;;;;;2.72;0.98;;;17.00;99.90;;;;;;4985326;28;20022;-64
2023/03/31 12:40:08;;;;;;;3.80;0.95;;;17.00;99.90;;;;;;4990986;28;20034;-64
2023/03/31 12:42:49;;;;;;;3.20;0.90;;;17.00;99.90;;;;;;5002662;28;20168;-65
2023/03/31 12:45:38;;;;;;;5.97;1.05;;;17.00;99.90;;;;;;5007045;28;20510;-64
2023/03/31 12:48:28;;;;;;;3.88;1.30;;;17.00;99.90;;;;;;5020590;28;20084;-65
2023/03/31 12:51:20;;;;;;;6.15;1.50;;;17.00;99.90;;;;;;5004800;28;20619;-65
2023/03/31 12:53:56;;;;;;;2.70;1.15;;;17.00;99.90;;;;;;5008964;28;20132;-64
2023/03/31 12:56:23;;;;;;;3.65;1.38;;;17.10;99.90;;;;;;5007569;28;20210;-65
2023/03/31 12:58:50;;;;;;;2.38;1.30;;;17.10;99.90;;;;;;5006880;28;20069;-65
2023/03/31 13:01:20;;;;;;;3.92;1.67;;;17.10;99.90;;;;;;5010202;28;20509;-65
2023/03/31 13:04:09;;;;;;;4.57;1.40;;;17.10;99.90;;;;;;5003464;28;20188;-66
2023/03/31 13:06:45;;;;;;;4.18;1.10;;;17.10;99.90;;;;;;5009708;28;20018;-65
2023/03/31 13:09:16;;;;;;;4.68;1.48;;;17.10;99.90;;;;;;5009801;28;20026;-65
2023/03/31 13:11:48;;;;;;;2.15;1.13;;;17.10;99.90;;;;;;5001069;28;20033;-64
2023/03/31 13:14:35;;;;;;;4.35;0.98;;;17.10;99.90;;;;;;5025230;28;20045;-65
2023/03/31 13:17:21;;;;;;;2.22;0.90;;;17.00;99.90;;;;;;5023875;28;20026;-65
2023/03/31 13:19:50;;;;;;;2.35;0.80;;;17.00;99.90;;;;;;5009573;28;20029;-65
2023/03/31 13:22:49;;;;;;;2.15;1.00;;;17.00;99.90;;;;;;5004854;28;20027;-64
2023/03/31 13:25:44;;;;;;;4.10;1.20;;;17.00;99.90;;;;;;4989214;28;20036;-64
2023/03/31 13:28:31;;;;;;;1.48;0.63;;;17.00;99.90;;;;;;4997460;28;20030;-63